sensor_id;sensor_type;location;lat;lon;timestamp;P1;durP1;ratioP1;P2;durP2;ratioP2
33930;SDS011;20215;53.130;6.408;2022-12-10T00:00:23;14.25;;;10.13;;
33930;SDS011;20215;53.130;6.408;2022-12-10T00:02:49;18.02;;;11.05;;
33930;SDS011;20215;53.130;6.408;2022-12-10T00:05:15;12.32;;;9.85;;
33930;SDS011;20215;53.130;6.408;2022-12-10T00:07:40;16.17;;;10.90;;
33930;SDS011;20215;53.130;6.408;2022-12-10T00:10:06;17.58;;;11.23;;
33930;SDS011;20215;53.130;6.408;2022-12-10T00:12:32;16.38;;;11.48;;
33930;SDS011;20215;53.130;6.408;2022-12-10T00:14:57;16.02;;;10.60;;
33930;SDS011;20215;53.130;6.408;2022-12-10T00:17:23;18.17;;;11.77;;
33930;SDS011;20215;53.130;6.408;2022-12-10T00:19:48;17.73;;;11.55;;
33930;SDS011;20215;53.130;6.408;2022-12-10T00:22:14;18.42;;;11.43;;
33930;SDS011;20215;53.130;6.408;2022-12-10T00:24:39;15.95;;;10.88;;
33930;SDS011;20215;53.130;6.408;2022-12-10T00:27:05;18.23;;;11.77;;
33930;SDS011;20215;53.130;6.408;2022-12-10T00:29:31;17.75;;;11.95;;
33930;SDS011;20215;53.130;6.408;2022-12-10T00:31:56;20.30;;;12.13;;
33930;SDS011;20215;53.130;6.408;2022-12-10T00:34:22;15.73;;;11.20;;
33930;SDS011;20215;53.130;6.408;2022-12-10T00:36:48;18.10;;;12.30;;
33930;SDS011;20215;53.130;6.408;2022-12-10T00:39:19;15.10;;;11.55;;
33930;SDS011;20215;53.130;6.408;2022-12-10T00:41:45;18.27;;;11.25;;
33930;SDS011;20215;53.130;6.408;2022-12-10T00:44:11;17.63;;;11.90;;
33930;SDS011;20215;53.130;6.408;2022-12-10T00:46:39;19.88;;;12.80;;
33930;SDS011;20215;53.130;6.408;2022-12-10T00:49:04;19.38;;;12.95;;
33930;SDS011;20215;53.130;6.408;2022-12-10T00:51:30;17.73;;;12.55;;
33930;SDS011;20215;53.130;6.408;2022-12-10T00:53:56;20.80;;;13.27;;
33930;SDS011;20215;53.130;6.408;2022-12-10T00:56:27;18.52;;;11.88;;
33930;SDS011;20215;53.130;6.408;2022-12-10T00:58:55;17.77;;;12.65;;
33930;SDS011;20215;53.130;6.408;2022-12-10T01:04:03;18.58;;;12.65;;
33930;SDS011;20215;53.130;6.408;2022-12-10T01:06:34;19.35;;;13.05;;
33930;SDS011;20215;53.130;6.408;2022-12-10T01:09:05;20.48;;;13.52;;
33930;SDS011;20215;53.130;6.408;2022-12-10T01:11:33;17.75;;;12.05;;
33930;SDS011;20215;53.130;6.408;2022-12-10T01:14:02;21.00;;;12.90;;
33930;SDS011;20215;53.130;6.408;2022-12-10T01:16:28;20.70;;;13.43;;
33930;SDS011;20215;53.130;6.408;2022-12-10T01:18:54;19.65;;;13.23;;
33930;SDS011;20215;53.130;6.408;2022-12-10T01:21:21;19.00;;;12.32;;
33930;SDS011;20215;53.130;6.408;2022-12-10T01:23:48;18.50;;;12.50;;
33930;SDS011;20215;53.130;6.408;2022-12-10T01:26:27;17.60;;;12.65;;
33930;SDS011;20215;53.130;6.408;2022-12-10T01:28:56;18.48;;;11.93;;
33930;SDS011;20215;53.130;6.408;2022-12-10T01:31:25;19.80;;;12.85;;
33930;SDS011;20215;53.130;6.408;2022-12-10T01:33:53;19.35;;;12.95;;
33930;SDS011;20215;53.130;6.408;2022-12-10T01:36:30;20.58;;;13.25;;
33930;SDS011;20215;53.130;6.408;2022-12-10T01:39:01;19.60;;;13.30;;
33930;SDS011;20215;53.130;6.408;2022-12-10T01:41:36;20.95;;;13.52;;
33930;SDS011;20215;53.130;6.408;2022-12-10T01:46:33;18.33;;;11.30;;
33930;SDS011;20215;53.130;6.408;2022-12-10T01:49:01;21.27;;;12.85;;
33930;SDS011;20215;53.130;6.408;2022-12-10T01:51:30;22.10;;;13.25;;
33930;SDS011;20215;53.130;6.408;2022-12-10T01:53:58;19.33;;;12.95;;
33930;SDS011;20215;53.130;6.408;2022-12-10T01:56:24;21.10;;;12.90;;
33930;SDS011;20215;53.130;6.408;2022-12-10T01:58:50;21.05;;;13.07;;
33930;SDS011;20215;53.130;6.408;2022-12-10T02:04:29;21.17;;;13.50;;
33930;SDS011;20215;53.130;6.408;2022-12-10T02:07:09;20.90;;;12.75;;
33930;SDS011;20215;53.130;6.408;2022-12-10T02:10:04;21.80;;;13.95;;
33930;SDS011;20215;53.130;6.408;2022-12-10T02:12:35;20.30;;;12.88;;
33930;SDS011;20215;53.130;6.408;2022-12-10T02:15:11;21.00;;;13.85;;
33930;SDS011;20215;53.130;6.408;2022-12-10T02:17:42;20.58;;;13.50;;
33930;SDS011;20215;53.130;6.408;2022-12-10T02:20:13;21.02;;;13.60;;
33930;SDS011;20215;53.130;6.408;2022-12-10T02:22:44;18.80;;;13.77;;
33930;SDS011;20215;53.130;6.408;2022-12-10T02:27:46;21.63;;;13.23;;
33930;SDS011;20215;53.130;6.408;2022-12-10T02:30:33;21.85;;;14.45;;
33930;SDS011;20215;53.130;6.408;2022-12-10T02:33:00;21.95;;;14.52;;
33930;SDS011;20215;53.130;6.408;2022-12-10T02:35:29;22.38;;;13.32;;
33930;SDS011;20215;53.130;6.408;2022-12-10T02:38:00;21.73;;;13.80;;
33930;SDS011;20215;53.130;6.408;2022-12-10T02:40:34;22.75;;;13.55;;
33930;SDS011;20215;53.130;6.408;2022-12-10T02:43:03;21.90;;;14.20;;
33930;SDS011;20215;53.130;6.408;2022-12-10T02:45:29;21.02;;;13.85;;
33930;SDS011;20215;53.130;6.408;2022-12-10T02:47:57;22.58;;;13.88;;
33930;SDS011;20215;53.130;6.408;2022-12-10T02:50:24;20.65;;;13.40;;
33930;SDS011;20215;53.130;6.408;2022-12-10T02:52:50;22.90;;;13.52;;
33930;SDS011;20215;53.130;6.408;2022-12-10T02:55:16;19.92;;;13.60;;
33930;SDS011;20215;53.130;6.408;2022-12-10T03:00:36;21.90;;;14.27;;
33930;SDS011;20215;53.130;6.408;2022-12-10T03:03:40;20.40;;;13.32;;
33930;SDS011;20215;53.130;6.408;2022-12-10T03:09:04;22.90;;;13.45;;
33930;SDS011;20215;53.130;6.408;2022-12-10T03:11:40;24.75;;;15.93;;
33930;SDS011;20215;53.130;6.408;2022-12-10T03:14:11;22.95;;;13.90;;
33930;SDS011;20215;53.130;6.408;2022-12-10T03:16:41;20.90;;;12.82;;
33930;SDS011;20215;53.130;6.408;2022-12-10T03:19:11;22.60;;;13.77;;
33930;SDS011;20215;53.130;6.408;2022-12-10T03:21:43;26.08;;;15.07;;
33930;SDS011;20215;53.130;6.408;2022-12-10T03:24:10;24.30;;;13.73;;
33930;SDS011;20215;53.130;6.408;2022-12-10T03:26:37;20.17;;;13.20;;
33930;SDS011;20215;53.130;6.408;2022-12-10T03:29:05;22.45;;;14.63;;
33930;SDS011;20215;53.130;6.408;2022-12-10T03:31:33;20.40;;;13.35;;
33930;SDS011;20215;53.130;6.408;2022-12-10T03:34:01;21.27;;;14.45;;
33930;SDS011;20215;53.130;6.408;2022-12-10T03:36:27;21.83;;;14.50;;
33930;SDS011;20215;53.130;6.408;2022-12-10T03:38:55;21.13;;;13.60;;
33930;SDS011;20215;53.130;6.408;2022-12-10T03:41:21;22.65;;;13.90;;
33930;SDS011;20215;53.130;6.408;2022-12-10T03:43:53;22.02;;;13.93;;
33930;SDS011;20215;53.130;6.408;2022-12-10T03:46:21;20.75;;;13.05;;
33930;SDS011;20215;53.130;6.408;2022-12-10T03:48:48;22.60;;;14.55;;
33930;SDS011;20215;53.130;6.408;2022-12-10T03:51:14;25.75;;;15.00;;
33930;SDS011;20215;53.130;6.408;2022-12-10T03:53:40;22.60;;;13.80;;
33930;SDS011;20215;53.130;6.408;2022-12-10T03:56:05;22.92;;;13.77;;
33930;SDS011;20215;53.130;6.408;2022-12-10T03:58:31;20.90;;;14.30;;
33930;SDS011;20215;53.130;6.408;2022-12-10T04:00:57;22.55;;;14.75;;
33930;SDS011;20215;53.130;6.408;2022-12-10T04:03:23;24.58;;;14.60;;
33930;SDS011;20215;53.130;6.408;2022-12-10T04:05:48;22.30;;;14.52;;
33930;SDS011;20215;53.130;6.408;2022-12-10T04:08:14;23.73;;;14.40;;
33930;SDS011;20215;53.130;6.408;2022-12-10T04:10:40;20.83;;;13.88;;
33930;SDS011;20215;53.130;6.408;2022-12-10T04:13:05;21.65;;;14.43;;
33930;SDS011;20215;53.130;6.408;2022-12-10T04:15:49;22.75;;;14.13;;
33930;SDS011;20215;53.130;6.408;2022-12-10T04:18:33;26.05;;;15.40;;
33930;SDS011;20215;53.130;6.408;2022-12-10T04:20:59;23.98;;;14.43;;
33930;SDS011;20215;53.130;6.408;2022-12-10T04:23:43;21.90;;;14.07;;
33930;SDS011;20215;53.130;6.408;2022-12-10T04:26:27;24.08;;;14.75;;
33930;SDS011;20215;53.130;6.408;2022-12-10T04:29:11;23.17;;;15.15;;
33930;SDS011;20215;53.130;6.408;2022-12-10T04:31:37;23.20;;;14.88;;
33930;SDS011;20215;53.130;6.408;2022-12-10T04:34:02;22.98;;;14.25;;
33930;SDS011;20215;53.130;6.408;2022-12-10T04:36:28;21.17;;;14.10;;
33930;SDS011;20215;53.130;6.408;2022-12-10T04:38:54;24.50;;;15.30;;
33930;SDS011;20215;53.130;6.408;2022-12-10T04:41:19;25.35;;;15.60;;
33930;SDS011;20215;53.130;6.408;2022-12-10T04:43:45;23.13;;;14.88;;
33930;SDS011;20215;53.130;6.408;2022-12-10T04:46:11;23.38;;;14.77;;
33930;SDS011;20215;53.130;6.408;2022-12-10T04:48:36;24.48;;;15.68;;
33930;SDS011;20215;53.130;6.408;2022-12-10T04:51:02;25.67;;;15.98;;
33930;SDS011;20215;53.130;6.408;2022-12-10T04:53:29;21.88;;;14.70;;
33930;SDS011;20215;53.130;6.408;2022-12-10T04:55:54;25.63;;;15.23;;
33930;SDS011;20215;53.130;6.408;2022-12-10T04:58:20;24.52;;;15.13;;
33930;SDS011;20215;53.130;6.408;2022-12-10T05:00:45;22.50;;;13.57;;
33930;SDS011;20215;53.130;6.408;2022-12-10T05:03:11;25.00;;;15.20;;
33930;SDS011;20215;53.130;6.408;2022-12-10T05:05:36;22.05;;;13.00;;
33930;SDS011;20215;53.130;6.408;2022-12-10T05:08:02;19.50;;;11.43;;
33930;SDS011;20215;53.130;6.408;2022-12-10T05:10:29;20.52;;;12.73;;
33930;SDS011;20215;53.130;6.408;2022-12-10T05:12:55;23.65;;;13.70;;
33930;SDS011;20215;53.130;6.408;2022-12-10T05:15:21;20.20;;;12.55;;
33930;SDS011;20215;53.130;6.408;2022-12-10T05:17:46;21.33;;;13.25;;
33930;SDS011;20215;53.130;6.408;2022-12-10T05:20:12;22.50;;;13.85;;
33930;SDS011;20215;53.130;6.408;2022-12-10T05:22:37;22.90;;;13.63;;
33930;SDS011;20215;53.130;6.408;2022-12-10T05:25:22;23.35;;;13.43;;
33930;SDS011;20215;53.130;6.408;2022-12-10T05:27:47;22.25;;;13.70;;
33930;SDS011;20215;53.130;6.408;2022-12-10T05:30:13;21.17;;;12.95;;
33930;SDS011;20215;53.130;6.408;2022-12-10T05:32:39;22.98;;;13.23;;
33930;SDS011;20215;53.130;6.408;2022-12-10T05:35:04;23.02;;;14.00;;
33930;SDS011;20215;53.130;6.408;2022-12-10T05:37:30;20.13;;;12.55;;
33930;SDS011;20215;53.130;6.408;2022-12-10T05:39:56;24.15;;;14.20;;
33930;SDS011;20215;53.130;6.408;2022-12-10T05:42:21;24.58;;;13.85;;
33930;SDS011;20215;53.130;6.408;2022-12-10T05:44:47;21.17;;;13.25;;
33930;SDS011;20215;53.130;6.408;2022-12-10T05:47:12;20.88;;;13.60;;
33930;SDS011;20215;53.130;6.408;2022-12-10T05:49:38;22.25;;;14.05;;
33930;SDS011;20215;53.130;6.408;2022-12-10T05:52:14;21.10;;;13.13;;
33930;SDS011;20215;53.130;6.408;2022-12-10T05:54:39;22.73;;;14.30;;
33930;SDS011;20215;53.130;6.408;2022-12-10T05:57:05;22.92;;;13.55;;
33930;SDS011;20215;53.130;6.408;2022-12-10T05:59:30;20.27;;;13.02;;
33930;SDS011;20215;53.130;6.408;2022-12-10T06:01:56;20.20;;;13.02;;
33930;SDS011;20215;53.130;6.408;2022-12-10T06:04:21;20.90;;;13.63;;
33930;SDS011;20215;53.130;6.408;2022-12-10T06:06:47;18.38;;;11.82;;
33930;SDS011;20215;53.130;6.408;2022-12-10T06:09:14;21.70;;;14.43;;
33930;SDS011;20215;53.130;6.408;2022-12-10T06:11:40;21.98;;;13.43;;
33930;SDS011;20215;53.130;6.408;2022-12-10T06:14:06;23.00;;;13.95;;
33930;SDS011;20215;53.130;6.408;2022-12-10T06:16:31;21.60;;;14.23;;
33930;SDS011;20215;53.130;6.408;2022-12-10T06:18:57;19.90;;;12.98;;
33930;SDS011;20215;53.130;6.408;2022-12-10T06:21:23;20.33;;;12.90;;
33930;SDS011;20215;53.130;6.408;2022-12-10T06:23:49;20.27;;;13.27;;
33930;SDS011;20215;53.130;6.408;2022-12-10T06:26:18;19.73;;;13.48;;
33930;SDS011;20215;53.130;6.408;2022-12-10T06:28:49;20.77;;;12.88;;
33930;SDS011;20215;53.130;6.408;2022-12-10T06:31:15;20.88;;;12.70;;
33930;SDS011;20215;53.130;6.408;2022-12-10T06:33:41;17.80;;;11.55;;
33930;SDS011;20215;53.130;6.408;2022-12-10T06:36:07;19.77;;;11.80;;
33930;SDS011;20215;53.130;6.408;2022-12-10T06:38:35;19.73;;;12.75;;
33930;SDS011;20215;53.130;6.408;2022-12-10T06:41:03;21.20;;;12.20;;
33930;SDS011;20215;53.130;6.408;2022-12-10T06:43:30;19.00;;;12.68;;
33930;SDS011;20215;53.130;6.408;2022-12-10T06:45:56;17.75;;;11.68;;
33930;SDS011;20215;53.130;6.408;2022-12-10T06:48:22;18.05;;;12.23;;
33930;SDS011;20215;53.130;6.408;2022-12-10T06:50:47;19.23;;;12.05;;
33930;SDS011;20215;53.130;6.408;2022-12-10T06:53:13;19.10;;;12.02;;
33930;SDS011;20215;53.130;6.408;2022-12-10T06:55:38;18.38;;;11.73;;
33930;SDS011;20215;53.130;6.408;2022-12-10T06:58:04;19.35;;;12.88;;
33930;SDS011;20215;53.130;6.408;2022-12-10T07:00:30;18.50;;;12.18;;
33930;SDS011;20215;53.130;6.408;2022-12-10T07:02:56;17.35;;;11.70;;
33930;SDS011;20215;53.130;6.408;2022-12-10T07:05:21;18.65;;;11.93;;
33930;SDS011;20215;53.130;6.408;2022-12-10T07:07:47;20.98;;;12.57;;
33930;SDS011;20215;53.130;6.408;2022-12-10T07:10:13;18.60;;;12.13;;
33930;SDS011;20215;53.130;6.408;2022-12-10T07:12:39;18.08;;;11.80;;
33930;SDS011;20215;53.130;6.408;2022-12-10T07:15:05;17.13;;;11.82;;
33930;SDS011;20215;53.130;6.408;2022-12-10T07:17:31;17.52;;;11.35;;
33930;SDS011;20215;53.130;6.408;2022-12-10T07:19:57;19.67;;;11.95;;
33930;SDS011;20215;53.130;6.408;2022-12-10T07:22:22;18.35;;;12.40;;
33930;SDS011;20215;53.130;6.408;2022-12-10T07:24:48;21.27;;;13.88;;
33930;SDS011;20215;53.130;6.408;2022-12-10T07:27:15;18.60;;;12.13;;
33930;SDS011;20215;53.130;6.408;2022-12-10T07:29:40;19.15;;;12.38;;
33930;SDS011;20215;53.130;6.408;2022-12-10T07:32:06;18.67;;;11.85;;
33930;SDS011;20215;53.130;6.408;2022-12-10T07:34:31;17.90;;;11.85;;
33930;SDS011;20215;53.130;6.408;2022-12-10T07:36:57;19.40;;;12.65;;
33930;SDS011;20215;53.130;6.408;2022-12-10T07:39:23;21.20;;;12.88;;
33930;SDS011;20215;53.130;6.408;2022-12-10T07:41:49;17.40;;;11.88;;
33930;SDS011;20215;53.130;6.408;2022-12-10T07:44:17;18.17;;;11.50;;
33930;SDS011;20215;53.130;6.408;2022-12-10T07:46:45;19.58;;;12.07;;
33930;SDS011;20215;53.130;6.408;2022-12-10T07:49:12;21.02;;;12.80;;
33930;SDS011;20215;53.130;6.408;2022-12-10T07:51:38;19.23;;;11.68;;
33930;SDS011;20215;53.130;6.408;2022-12-10T07:54:03;18.63;;;12.25;;
33930;SDS011;20215;53.130;6.408;2022-12-10T07:56:29;18.52;;;12.00;;
33930;SDS011;20215;53.130;6.408;2022-12-10T07:58:55;19.25;;;12.40;;
33930;SDS011;20215;53.130;6.408;2022-12-10T08:01:22;21.30;;;13.32;;
33930;SDS011;20215;53.130;6.408;2022-12-10T08:03:49;18.77;;;12.65;;
33930;SDS011;20215;53.130;6.408;2022-12-10T08:06:17;18.63;;;12.20;;
33930;SDS011;20215;53.130;6.408;2022-12-10T08:08:43;19.85;;;12.30;;
33930;SDS011;20215;53.130;6.408;2022-12-10T08:11:10;19.88;;;12.52;;
33930;SDS011;20215;53.130;6.408;2022-12-10T08:13:38;19.45;;;12.18;;
33930;SDS011;20215;53.130;6.408;2022-12-10T08:18:59;17.92;;;11.65;;
33930;SDS011;20215;53.130;6.408;2022-12-10T08:21:27;19.77;;;11.65;;
33930;SDS011;20215;53.130;6.408;2022-12-10T08:23:54;18.38;;;12.07;;
33930;SDS011;20215;53.130;6.408;2022-12-10T08:26:21;18.30;;;12.27;;
33930;SDS011;20215;53.130;6.408;2022-12-10T08:28:49;19.92;;;12.40;;
33930;SDS011;20215;53.130;6.408;2022-12-10T08:31:16;19.90;;;12.70;;
33930;SDS011;20215;53.130;6.408;2022-12-10T08:33:43;19.70;;;12.88;;
33930;SDS011;20215;53.130;6.408;2022-12-10T08:36:10;19.45;;;12.07;;
33930;SDS011;20215;53.130;6.408;2022-12-10T08:38:37;17.23;;;11.02;;
33930;SDS011;20215;53.130;6.408;2022-12-10T08:41:07;19.23;;;12.23;;
33930;SDS011;20215;53.130;6.408;2022-12-10T08:43:35;18.77;;;11.65;;
33930;SDS011;20215;53.130;6.408;2022-12-10T08:46:01;18.02;;;11.65;;
33930;SDS011;20215;53.130;6.408;2022-12-10T08:48:27;16.92;;;10.65;;
33930;SDS011;20215;53.130;6.408;2022-12-10T08:50:54;16.98;;;11.00;;
33930;SDS011;20215;53.130;6.408;2022-12-10T08:53:19;17.63;;;12.02;;
33930;SDS011;20215;53.130;6.408;2022-12-10T08:55:45;17.77;;;11.77;;
33930;SDS011;20215;53.130;6.408;2022-12-10T08:58:13;16.20;;;10.70;;
33930;SDS011;20215;53.130;6.408;2022-12-10T09:00:39;15.90;;;10.57;;
33930;SDS011;20215;53.130;6.408;2022-12-10T09:03:05;17.73;;;12.05;;
33930;SDS011;20215;53.130;6.408;2022-12-10T09:05:30;16.58;;;10.70;;
33930;SDS011;20215;53.130;6.408;2022-12-10T09:07:56;15.70;;;10.20;;
33930;SDS011;20215;53.130;6.408;2022-12-10T09:10:21;15.88;;;10.48;;
33930;SDS011;20215;53.130;6.408;2022-12-10T09:12:47;15.77;;;10.57;;
33930;SDS011;20215;53.130;6.408;2022-12-10T09:15:13;16.15;;;10.63;;
33930;SDS011;20215;53.130;6.408;2022-12-10T09:17:39;17.88;;;11.15;;
33930;SDS011;20215;53.130;6.408;2022-12-10T09:20:04;15.88;;;10.98;;
33930;SDS011;20215;53.130;6.408;2022-12-10T09:22:31;14.75;;;10.10;;
33930;SDS011;20215;53.130;6.408;2022-12-10T09:24:57;18.02;;;10.25;;
33930;SDS011;20215;53.130;6.408;2022-12-10T09:27:22;14.70;;;10.18;;
33930;SDS011;20215;53.130;6.408;2022-12-10T09:29:48;16.85;;;10.82;;
33930;SDS011;20215;53.130;6.408;2022-12-10T09:32:14;15.38;;;10.73;;
33930;SDS011;20215;53.130;6.408;2022-12-10T09:34:39;16.77;;;10.70;;
33930;SDS011;20215;53.130;6.408;2022-12-10T09:37:05;13.10;;;9.38;;
33930;SDS011;20215;53.130;6.408;2022-12-10T09:39:30;14.23;;;9.98;;
33930;SDS011;20215;53.130;6.408;2022-12-10T09:45:01;14.48;;;9.88;;
33930;SDS011;20215;53.130;6.408;2022-12-10T09:53:14;13.43;;;9.10;;
33930;SDS011;20215;53.130;6.408;2022-12-10T09:55:43;15.13;;;9.98;;
33930;SDS011;20215;53.130;6.408;2022-12-10T09:58:15;13.10;;;9.70;;
33930;SDS011;20215;53.130;6.408;2022-12-10T10:00:44;15.38;;;10.68;;
33930;SDS011;20215;53.130;6.408;2022-12-10T10:03:13;14.77;;;9.00;;
33930;SDS011;20215;53.130;6.408;2022-12-10T10:05:41;13.88;;;9.07;;
33930;SDS011;20215;53.130;6.408;2022-12-10T10:11:02;14.82;;;10.10;;
33930;SDS011;20215;53.130;6.408;2022-12-10T10:13:36;13.70;;;9.75;;
33930;SDS011;20215;53.130;6.408;2022-12-10T10:16:16;13.27;;;9.07;;
33930;SDS011;20215;53.130;6.408;2022-12-10T10:21:28;12.93;;;8.95;;
33930;SDS011;20215;53.130;6.408;2022-12-10T10:23:59;14.88;;;9.95;;
33930;SDS011;20215;53.130;6.408;2022-12-10T10:26:26;12.65;;;8.77;;
33930;SDS011;20215;53.130;6.408;2022-12-10T10:28:56;15.73;;;9.98;;
33930;SDS011;20215;53.130;6.408;2022-12-10T10:31:28;15.60;;;9.75;;
33930;SDS011;20215;53.130;6.408;2022-12-10T10:34:02;12.25;;;8.85;;
33930;SDS011;20215;53.130;6.408;2022-12-10T10:36:32;13.52;;;9.35;;
33930;SDS011;20215;53.130;6.408;2022-12-10T10:39:09;13.55;;;9.32;;
33930;SDS011;20215;53.130;6.408;2022-12-10T10:41:37;12.45;;;8.95;;
33930;SDS011;20215;53.130;6.408;2022-12-10T10:44:05;13.18;;;9.70;;
33930;SDS011;20215;53.130;6.408;2022-12-10T10:46:39;15.02;;;10.00;;
33930;SDS011;20215;53.130;6.408;2022-12-10T10:51:53;13.00;;;9.00;;
33930;SDS011;20215;53.130;6.408;2022-12-10T10:54:33;12.60;;;8.57;;
33930;SDS011;20215;53.130;6.408;2022-12-10T10:57:05;13.20;;;9.20;;
33930;SDS011;20215;53.130;6.408;2022-12-10T10:59:53;15.02;;;8.80;;
33930;SDS011;20215;53.130;6.408;2022-12-10T11:04:52;14.75;;;9.95;;
33930;SDS011;20215;53.130;6.408;2022-12-10T11:07:39;13.90;;;9.23;;
33930;SDS011;20215;53.130;6.408;2022-12-10T11:10:26;14.75;;;10.07;;
33930;SDS011;20215;53.130;6.408;2022-12-10T11:13:14;14.27;;;10.32;;
33930;SDS011;20215;53.130;6.408;2022-12-10T11:15:54;13.63;;;9.25;;
33930;SDS011;20215;53.130;6.408;2022-12-10T11:18:37;14.73;;;10.02;;
33930;SDS011;20215;53.130;6.408;2022-12-10T11:23:43;14.07;;;10.13;;
33930;SDS011;20215;53.130;6.408;2022-12-10T11:26:33;15.00;;;9.55;;
33930;SDS011;20215;53.130;6.408;2022-12-10T11:29:18;14.45;;;10.55;;
33930;SDS011;20215;53.130;6.408;2022-12-10T11:37:36;15.63;;;9.88;;
33930;SDS011;20215;53.130;6.408;2022-12-10T11:51:06;14.57;;;9.90;;
33930;SDS011;20215;53.130;6.408;2022-12-10T11:56:49;15.48;;;9.82;;
33930;SDS011;20215;53.130;6.408;2022-12-10T12:12:59;17.13;;;11.32;;
33930;SDS011;20215;53.130;6.408;2022-12-10T12:15:50;14.82;;;10.23;;
33930;SDS011;20215;53.130;6.408;2022-12-10T12:18:22;14.13;;;9.48;;
33930;SDS011;20215;53.130;6.408;2022-12-10T12:20:58;16.58;;;10.88;;
33930;SDS011;20215;53.130;6.408;2022-12-10T12:26:08;16.92;;;10.77;;
33930;SDS011;20215;53.130;6.408;2022-12-10T12:31:46;16.52;;;10.30;;
33930;SDS011;20215;53.130;6.408;2022-12-10T12:34:27;13.05;;;8.32;;
33930;SDS011;20215;53.130;6.408;2022-12-10T12:36:54;16.35;;;10.40;;
33930;SDS011;20215;53.130;6.408;2022-12-10T12:39:32;15.10;;;9.13;;
33930;SDS011;20215;53.130;6.408;2022-12-10T12:42:24;14.82;;;9.23;;
33930;SDS011;20215;53.130;6.408;2022-12-10T12:47:48;17.15;;;10.45;;
33930;SDS011;20215;53.130;6.408;2022-12-10T12:52:59;16.98;;;9.57;;
33930;SDS011;20215;53.130;6.408;2022-12-10T12:58:14;16.23;;;9.63;;
33930;SDS011;20215;53.130;6.408;2022-12-10T13:01:06;16.30;;;10.27;;
33930;SDS011;20215;53.130;6.408;2022-12-10T13:04:06;14.75;;;9.63;;
33930;SDS011;20215;53.130;6.408;2022-12-10T13:06:33;14.30;;;9.25;;
33930;SDS011;20215;53.130;6.408;2022-12-10T13:14:28;15.43;;;9.32;;
33930;SDS011;20215;53.130;6.408;2022-12-10T13:16:59;13.90;;;9.65;;
33930;SDS011;20215;53.130;6.408;2022-12-10T13:19:31;17.23;;;11.20;;
33930;SDS011;20215;53.130;6.408;2022-12-10T13:43:25;13.73;;;6.97;;
33930;SDS011;20215;53.130;6.408;2022-12-10T13:46:23;15.60;;;7.35;;
33930;SDS011;20215;53.130;6.408;2022-12-10T13:48:53;12.35;;;7.57;;
33930;SDS011;20215;53.130;6.408;2022-12-10T13:51:29;15.80;;;8.77;;
33930;SDS011;20215;53.130;6.408;2022-12-10T14:07:59;14.90;;;8.25;;
33930;SDS011;20215;53.130;6.408;2022-12-10T14:10:29;14.23;;;7.47;;
33930;SDS011;20215;53.130;6.408;2022-12-10T14:12:57;14.10;;;8.55;;
33930;SDS011;20215;53.130;6.408;2022-12-10T14:15:25;13.27;;;7.63;;
33930;SDS011;20215;53.130;6.408;2022-12-10T14:18:25;13.88;;;7.97;;
33930;SDS011;20215;53.130;6.408;2022-12-10T14:20:46;15.43;;;8.07;;
33930;SDS011;20215;53.130;6.408;2022-12-10T14:26:03;12.05;;;8.00;;
33930;SDS011;20215;53.130;6.408;2022-12-10T14:30:58;15.40;;;8.48;;
33930;SDS011;20215;53.130;6.408;2022-12-10T14:33:24;11.65;;;7.45;;
33930;SDS011;20215;53.130;6.408;2022-12-10T14:35:50;13.50;;;8.15;;
33930;SDS011;20215;53.130;6.408;2022-12-10T14:38:19;13.30;;;7.70;;
33930;SDS011;20215;53.130;6.408;2022-12-10T14:40:48;11.48;;;7.63;;
33930;SDS011;20215;53.130;6.408;2022-12-10T14:43:18;12.13;;;7.72;;
33930;SDS011;20215;53.130;6.408;2022-12-10T14:48:25;11.20;;;7.68;;
33930;SDS011;20215;53.130;6.408;2022-12-10T14:50:52;9.95;;;6.60;;
33930;SDS011;20215;53.130;6.408;2022-12-10T14:53:24;12.15;;;7.57;;
33930;SDS011;20215;53.130;6.408;2022-12-10T14:55:53;14.30;;;8.68;;
33930;SDS011;20215;53.130;6.408;2022-12-10T15:01:03;12.75;;;7.68;;
33930;SDS011;20215;53.130;6.408;2022-12-10T15:03:30;13.90;;;8.40;;
33930;SDS011;20215;53.130;6.408;2022-12-10T15:06:06;11.20;;;7.22;;
33930;SDS011;20215;53.130;6.408;2022-12-10T15:08:33;12.13;;;8.00;;
33930;SDS011;20215;53.130;6.408;2022-12-10T15:11:00;11.98;;;7.28;;
33930;SDS011;20215;53.130;6.408;2022-12-10T15:15:59;11.68;;;7.28;;
33930;SDS011;20215;53.130;6.408;2022-12-10T15:18:27;11.13;;;7.03;;
33930;SDS011;20215;53.130;6.408;2022-12-10T15:21:30;12.60;;;7.88;;
33930;SDS011;20215;53.130;6.408;2022-12-10T15:23:49;11.55;;;7.00;;
33930;SDS011;20215;53.130;6.408;2022-12-10T15:26:27;12.32;;;8.25;;
33930;SDS011;20215;53.130;6.408;2022-12-10T15:31:48;11.40;;;7.78;;
33930;SDS011;20215;53.130;6.408;2022-12-10T15:34:15;10.85;;;7.00;;
33930;SDS011;20215;53.130;6.408;2022-12-10T15:36:43;11.57;;;7.57;;
33930;SDS011;20215;53.130;6.408;2022-12-10T15:39:23;13.52;;;7.93;;
33930;SDS011;20215;53.130;6.408;2022-12-10T15:42:03;12.93;;;8.18;;
33930;SDS011;20215;53.130;6.408;2022-12-10T15:44:32;13.95;;;8.52;;
33930;SDS011;20215;53.130;6.408;2022-12-10T15:47:19;12.45;;;7.80;;
33930;SDS011;20215;53.130;6.408;2022-12-10T15:49:47;12.80;;;7.88;;
33930;SDS011;20215;53.130;6.408;2022-12-10T15:52:33;12.15;;;7.65;;
33930;SDS011;20215;53.130;6.408;2022-12-10T15:54:59;11.80;;;8.07;;
33930;SDS011;20215;53.130;6.408;2022-12-10T15:59:52;11.90;;;7.63;;
33930;SDS011;20215;53.130;6.408;2022-12-10T16:05:10;12.18;;;7.25;;
33930;SDS011;20215;53.130;6.408;2022-12-10T16:07:36;11.80;;;7.65;;
33930;SDS011;20215;53.130;6.408;2022-12-10T16:10:02;10.90;;;7.38;;
33930;SDS011;20215;53.130;6.408;2022-12-10T16:12:28;11.63;;;7.95;;
33930;SDS011;20215;53.130;6.408;2022-12-10T16:14:55;15.50;;;8.80;;
33930;SDS011;20215;53.130;6.408;2022-12-10T16:17:24;12.52;;;7.90;;
33930;SDS011;20215;53.130;6.408;2022-12-10T16:19:51;14.13;;;8.50;;
33930;SDS011;20215;53.130;6.408;2022-12-10T16:22:18;12.73;;;7.75;;
33930;SDS011;20215;53.130;6.408;2022-12-10T16:24:44;15.48;;;8.38;;
33930;SDS011;20215;53.130;6.408;2022-12-10T16:27:12;12.30;;;8.00;;
33930;SDS011;20215;53.130;6.408;2022-12-10T16:29:39;16.58;;;9.85;;
33930;SDS011;20215;53.130;6.408;2022-12-10T16:32:07;13.63;;;8.35;;
33930;SDS011;20215;53.130;6.408;2022-12-10T16:34:36;11.40;;;7.88;;
33930;SDS011;20215;53.130;6.408;2022-12-10T16:37:03;13.27;;;7.75;;
33930;SDS011;20215;53.130;6.408;2022-12-10T16:39:29;15.25;;;9.52;;
33930;SDS011;20215;53.130;6.408;2022-12-10T16:41:54;12.93;;;7.55;;
33930;SDS011;20215;53.130;6.408;2022-12-10T16:44:20;12.57;;;8.32;;
33930;SDS011;20215;53.130;6.408;2022-12-10T16:46:46;12.43;;;8.20;;
33930;SDS011;20215;53.130;6.408;2022-12-10T16:49:12;12.38;;;7.75;;
33930;SDS011;20215;53.130;6.408;2022-12-10T16:51:37;11.40;;;7.72;;
33930;SDS011;20215;53.130;6.408;2022-12-10T16:54:04;11.35;;;7.57;;
33930;SDS011;20215;53.130;6.408;2022-12-10T16:56:30;11.57;;;6.85;;
33930;SDS011;20215;53.130;6.408;2022-12-10T16:58:56;11.65;;;7.60;;
33930;SDS011;20215;53.130;6.408;2022-12-10T17:01:26;12.48;;;7.22;;
33930;SDS011;20215;53.130;6.408;2022-12-10T17:03:53;13.77;;;7.60;;
33930;SDS011;20215;53.130;6.408;2022-12-10T17:06:20;13.10;;;7.68;;
33930;SDS011;20215;53.130;6.408;2022-12-10T17:08:47;13.23;;;7.78;;